SWA2675 KSAN-KDEN
Flight info
| Callsign | SWA2675 |
|---|---|
| Flight time | N/A |
| Altitude | 37000 |
| Route | ZZOOO4 MTBAL EED J236 TBC CRUDD TBARR4 |
| Aircraft | B737/M-SADE2E3GIJ4RWZ/LB1D1 |
Departure
| Time | 2026-05-05 00:49 |
|---|---|
| Airport | San Diego International Airport (KSAN) |
Arrival
| Time | N/A |
|---|---|
| Airport | Denver International Airport (KDEN) |
| Time | Latitude | Longitude | Altitude | Speed | Heading |
|---|---|---|---|---|---|
| 2026-05-05 00:36 | 32.73331 | -117.19646 | 27 ft | 0 kts | 171° |
| 2026-05-05 00:42 | 32.73343 | -117.19648 | 23 ft | 4 kts | 147° |
| 2026-05-05 00:42 | 32.73355 | -117.19671 | 26 ft | 4 kts | 105° |
| 2026-05-05 00:43 | 32.73360 | -117.19696 | 29 ft | 4 kts | 84° |
| 2026-05-05 00:43 | 32.73350 | -117.19712 | 27 ft | 3 kts | 20° |
| 2026-05-05 00:43 | 32.73336 | -117.19718 | 23 ft | 1 kts | 20° |
| 2026-05-05 00:44 | 32.73336 | -117.19719 | 23 ft | 0 kts | 20° |
| 2026-05-05 00:44 | 32.73339 | -117.19717 | 24 ft | 2 kts | 20° |
| 2026-05-05 00:45 | 32.73387 | -117.19699 | 28 ft | 11 kts | 17° |
| 2026-05-05 00:45 | 32.73412 | -117.19622 | 25 ft | 11 kts | 104° |
| 2026-05-05 00:45 | 32.73390 | -117.19533 | 28 ft | 11 kts | 106° |
| 2026-05-05 00:45 | 32.73365 | -117.19430 | 25 ft | 16 kts | 106° |
| 2026-05-05 00:46 | 32.73328 | -117.19274 | 24 ft | 23 kts | 106° |
| 2026-05-05 00:46 | 32.73282 | -117.19091 | 27 ft | 23 kts | 107° |
| 2026-05-05 00:46 | 32.73237 | -117.18915 | 28 ft | 22 kts | 107° |
| 2026-05-05 00:46 | 32.73197 | -117.18742 | 23 ft | 21 kts | 105° |
| 2026-05-05 00:47 | 32.73158 | -117.18574 | 29 ft | 21 kts | 106° |
| 2026-05-05 00:47 | 32.73118 | -117.18412 | 25 ft | 20 kts | 106° |
| 2026-05-05 00:47 | 32.73078 | -117.18252 | 25 ft | 22 kts | 107° |
| 2026-05-05 00:47 | 32.73033 | -117.18060 | 21 ft | 25 kts | 106° |
| 2026-05-05 00:48 | 32.72987 | -117.17872 | 20 ft | 23 kts | 107° |
| 2026-05-05 00:48 | 32.72950 | -117.17691 | 21 ft | 22 kts | 81° |
| 2026-05-05 00:48 | 32.73036 | -117.17626 | 24 ft | 11 kts | 294° |
| 2026-05-05 00:48 | 32.73043 | -117.17662 | 22 ft | 4 kts | 282° |
| 2026-05-05 00:49 | 32.73063 | -117.17761 | 25 ft | 38 kts | 284° |
| 2026-05-05 00:49 | 32.73212 | -117.18371 | 28 ft | 112 kts | 286° |
| 2026-05-05 00:49 | 32.73481 | -117.19465 | 150 ft | 156 kts | 287° |
| 2026-05-05 00:49 | 32.73815 | -117.20711 | 920 ft | 156 kts | 286° |
| 2026-05-05 00:50 | 32.74113 | -117.21943 | 1604 ft | 163 kts | 283° |
| 2026-05-05 00:50 | 32.74431 | -117.23328 | 1991 ft | 185 kts | 283° |
| 2026-05-05 00:50 | 32.74798 | -117.24922 | 2274 ft | 214 kts | 284° |
| 2026-05-05 00:50 | 32.75220 | -117.26689 | 2848 ft | 226 kts | 284° |
| 2026-05-05 00:51 | 32.75643 | -117.28482 | 3712 ft | 226 kts | 284° |
| 2026-05-05 00:51 | 32.76082 | -117.30298 | 4459 ft | 232 kts | 285° |
| 2026-05-05 00:51 | 32.76501 | -117.32162 | 5276 ft | 234 kts | 277° |
| 2026-05-05 00:51 | 32.76330 | -117.34052 | 6099 ft | 237 kts | 249° |
| 2026-05-05 00:52 | 32.75324 | -117.35610 | 6938 ft | 243 kts | 218° |
| 2026-05-05 00:52 | 32.73774 | -117.36419 | 7855 ft | 249 kts | 192° |
| 2026-05-05 00:52 | 32.72030 | -117.36285 | 8770 ft | 259 kts | 165° |
| 2026-05-05 00:52 | 32.70468 | -117.35173 | 9714 ft | 269 kts | 141° |
| 2026-05-05 00:53 | 32.69205 | -117.33496 | 10557 ft | 276 kts | 133° |
| 2026-05-05 00:53 | 32.68006 | -117.31683 | 11321 ft | 281 kts | 133° |
| 2026-05-05 00:53 | 32.66782 | -117.29851 | 12133 ft | 285 kts | 134° |
| 2026-05-05 00:53 | 32.65522 | -117.28011 | 12980 ft | 288 kts | 135° |
| 2026-05-05 00:54 | 32.64236 | -117.26159 | 13814 ft | 292 kts | 136° |
| 2026-05-05 00:54 | 32.63164 | -117.24056 | 14511 ft | 311 kts | 111° |
| 2026-05-05 00:54 | 32.62771 | -117.21460 | 14826 ft | 339 kts | 101° |
| 2026-05-05 00:54 | 32.62533 | -117.18561 | 15147 ft | 361 kts | 99° |
| 2026-05-05 00:55 | 32.62298 | -117.15547 | 15777 ft | 371 kts | 99° |
| 2026-05-05 00:55 | 32.62042 | -117.12478 | 16563 ft | 375 kts | 99° |
| 2026-05-05 00:55 | 32.62193 | -117.09343 | 17325 ft | 388 kts | 77° |
| 2026-05-05 00:55 | 32.63092 | -117.06344 | 18158 ft | 392 kts | 69° |
| 2026-05-05 00:56 | 32.64138 | -117.03325 | 18813 ft | 399 kts | 69° |
| 2026-05-05 00:56 | 32.65188 | -117.00251 | 19411 ft | 407 kts | 69° |
| 2026-05-05 00:56 | 32.66208 | -116.97154 | 20032 ft | 413 kts | 72° |
| 2026-05-05 00:56 | 32.66804 | -116.93814 | 20639 ft | 413 kts | 92° |
| 2026-05-05 00:57 | 32.66837 | -116.90394 | 21329 ft | 416 kts | 95° |
| 2026-05-05 00:57 | 32.66856 | -116.86931 | 21944 ft | 423 kts | 95° |
| 2026-05-05 00:57 | 32.66912 | -116.83417 | 22644 ft | 428 kts | 94° |
| 2026-05-05 00:57 | 32.67249 | -116.79910 | 23248 ft | 443 kts | 77° |
| 2026-05-05 00:58 | 32.68575 | -116.76517 | 23832 ft | 453 kts | 54° |
| 2026-05-05 00:58 | 32.70703 | -116.73822 | 24297 ft | 456 kts | 34° |